ARA Libertad — LOLD — position and weather

sailwx.info

Track history (hours):
 
Tides and Currents Weather Stations Pressure Air Temp Water Temp Dewpoint Dewpoint Depression Visibility Wind Speed Wind Dir Waves Ship Positions

ARA Libertad (Argentina)

Last reported at 2017-Apr-14 23:14 UTC. Time now 2017-Apr-29 03:36 UTC.
Position S 02°12' W 044°11'.
Warning: this ship's position is 14 days out of date.

Length 104 m; draft 6.7 m.

Type: Other ship. MMSI: 701000001.

Date/timePositionNaut miles runAvg speedWind from/ knotsBaromVisibWave heightAir tempDewpointWater temp
2017-Apr-14 23:14S 02°12' W 044°11'3 9.9
2017-Apr-14 22:58S 02°14' W 044°13'4 9.6
2017-Apr-14 22:30S 02°18' W 044°15'5 9.2
2017-Apr-14 22:00S 02°21' W 044°18'4 8.7
2017-Apr-14 21:30S 02°25' W 044°20'1 2.1
2017-Apr-14 21:00S 02°24' W 044°21'0 0.3
2017-Apr-14 20:30S 02°24' W 044°21'612.8
2017-Apr-14 20:00S 02°19' W 044°17'713.3
2017-Apr-14 19:30S 02°13' W 044°13'  
Track history (hours):
 
Tides and Currents Weather Stations Pressure Air Temp Water Temp Dewpoint Dewpoint Depression Visibility Wind Speed Wind Dir Waves Ship Positions

ARA Libertad (Argentina)

Last reported at 2017-Apr-14 23:14 UTC. Time now 2017-Apr-29 03:36 UTC.
Position S 02°12' W 044°11'.
Warning: this ship's position is 14 days out of date.

Length 104 m; draft 6.7 m.

Type: Other ship. MMSI: 701000001.

Date/timePositionNaut miles runAvg speedWind from/ knotsBaromVisibWave heightAir tempDewpointWater temp
2017-Apr-14 23:14S 02°12' W 044°11'3 9.9
2017-Apr-14 22:58S 02°14' W 044°13'4 9.6
2017-Apr-14 22:30S 02°18' W 044°15'5 9.2
2017-Apr-14 22:00S 02°21' W 044°18'4 8.7
2017-Apr-14 21:30S 02°25' W 044°20'1 2.1
2017-Apr-14 21:00S 02°24' W 044°21'0 0.3
2017-Apr-14 20:30S 02°24' W 044°21'612.8
2017-Apr-14 20:00S 02°19' W 044°17'713.3
2017-Apr-14 19:30S 02°13' W 044°13'  

Dump ship's entire track history